Big Sandy, Montana
Current Conditions -  °F | °C
As of 4:53 AM on Friday 28 Nov 2014 (Local Time) from KHVR Reporting Station
Moderate Fog Moderate Fog  
Wind Chill: 22°   Ceiling: 200
Heat Index: 28°   Visibility: 0.5mi
Dew Point: 26°   Wind: 6mph
Humidity: 92%   Direction: 80°E
Pressure: 29.55"   Gusts: NA
Location:  48.18°N, 110.11°W
Report Text: KHVR 281153Z AUTO 08005KT 1/2SM FZFG VV002 M02/M03 A2955 RMK AO2 SLP030 70002 I1001 I6005 T10221033 11017 21028 58019
Loading
Personal Weather Stations






























Interactive Weather Map New forecast layout! Learn more

10-Day Weather Forecast

Advertisements
Track Severe Weather on mobile